sensor_id;sensor_type;location;lat;lon;timestamp;pressure;altitude;pressure_sealevel;temperature;humidity
65800;BME280;52544;48.116;11.660;2023-09-08T00:00:52;95900.66;;;16.20;100.00
65800;BME280;52544;48.116;11.660;2023-09-08T00:03:17;95902.13;;;16.22;100.00
65800;BME280;52544;48.116;11.660;2023-09-08T00:05:43;95896.13;;;16.20;100.00
65800;BME280;52544;48.116;11.660;2023-09-08T00:08:08;95899.13;;;16.17;100.00
65800;BME280;52544;48.116;11.660;2023-09-08T00:10:33;95898.59;;;16.14;100.00
65800;BME280;52544;48.116;11.660;2023-09-08T00:12:59;95901.44;;;16.12;100.00
65800;BME280;52544;48.116;11.660;2023-09-08T00:15:24;95892.59;;;16.12;100.00
65800;BME280;52544;48.116;11.660;2023-09-08T00:17:49;95892.75;;;16.10;100.00
65800;BME280;52544;48.116;11.660;2023-09-08T00:20:15;95897.22;;;16.10;100.00
65800;BME280;52544;48.116;11.660;2023-09-08T00:22:40;95900.06;;;16.08;100.00
65800;BME280;52544;48.116;11.660;2023-09-08T00:25:06;95897.69;;;16.05;100.00
65800;BME280;52544;48.116;11.660;2023-09-08T00:27:31;95890.69;;;16.04;100.00
65800;BME280;52544;48.116;11.660;2023-09-08T00:29:57;95890.34;;;15.99;100.00
65800;BME280;52544;48.116;11.660;2023-09-08T00:32:23;95887.31;;;15.94;100.00
65800;BME280;52544;48.116;11.660;2023-09-08T00:34:48;95888.31;;;15.93;100.00
65800;BME280;52544;48.116;11.660;2023-09-08T00:37:14;95887.09;;;15.87;100.00
65800;BME280;52544;48.116;11.660;2023-09-08T00:39:39;95887.56;;;15.83;100.00
65800;BME280;52544;48.116;11.660;2023-09-08T00:42:06;95881.00;;;15.77;100.00
65800;BME280;52544;48.116;11.660;2023-09-08T00:44:32;95880.19;;;15.77;100.00
65800;BME280;52544;48.116;11.660;2023-09-08T00:46:58;95882.84;;;15.77;100.00
65800;BME280;52544;48.116;11.660;2023-09-08T00:49:23;95883.47;;;15.70;100.00
65800;BME280;52544;48.116;11.660;2023-09-08T00:51:49;95885.28;;;15.70;100.00
65800;BME280;52544;48.116;11.660;2023-09-08T00:54:15;95877.44;;;15.68;100.00
65800;BME280;52544;48.116;11.660;2023-09-08T00:56:40;95889.25;;;15.66;100.00
65800;BME280;52544;48.116;11.660;2023-09-08T00:59:07;95886.75;;;15.64;100.00
65800;BME280;52544;48.116;11.660;2023-09-08T01:01:33;95893.19;;;15.62;100.00
65800;BME280;52544;48.116;11.660;2023-09-08T01:04:00;95896.56;;;15.64;100.00
65800;BME280;52544;48.116;11.660;2023-09-08T01:06:27;95888.84;;;15.61;100.00
65800;BME280;52544;48.116;11.660;2023-09-08T01:08:54;95881.31;;;15.56;100.00
65800;BME280;52544;48.116;11.660;2023-09-08T01:11:21;95879.66;;;15.55;100.00
65800;BME280;52544;48.116;11.660;2023-09-08T01:13:46;95879.94;;;15.52;100.00
65800;BME280;52544;48.116;11.660;2023-09-08T01:16:12;95888.41;;;15.47;100.00
65800;BME280;52544;48.116;11.660;2023-09-08T01:18:37;95881.84;;;15.42;100.00
65800;BME280;52544;48.116;11.660;2023-09-08T01:21:25;95883.84;;;15.40;100.00
65800;BME280;52544;48.116;11.660;2023-09-08T01:24:11;95887.50;;;15.39;100.00
65800;BME280;52544;48.116;11.660;2023-09-08T01:26:41;95885.84;;;15.38;100.00
65800;BME280;52544;48.116;11.660;2023-09-08T01:29:07;95885.13;;;15.36;100.00
65800;BME280;52544;48.116;11.660;2023-09-08T01:31:34;95887.81;;;15.36;100.00
65800;BME280;52544;48.116;11.660;2023-09-08T01:34:00;95881.47;;;15.37;100.00
65800;BME280;52544;48.116;11.660;2023-09-08T01:36:27;95879.66;;;15.37;100.00
65800;BME280;52544;48.116;11.660;2023-09-08T01:38:52;95878.13;;;15.35;100.00
65800;BME280;52544;48.116;11.660;2023-09-08T01:41:17;95882.78;;;15.33;100.00
65800;BME280;52544;48.116;11.660;2023-09-08T01:43:43;95887.28;;;15.32;100.00
65800;BME280;52544;48.116;11.660;2023-09-08T01:46:08;95889.28;;;15.30;100.00
65800;BME280;52544;48.116;11.660;2023-09-08T01:48:33;95883.09;;;15.30;100.00
65800;BME280;52544;48.116;11.660;2023-09-08T01:50:59;95886.06;;;15.27;100.00
65800;BME280;52544;48.116;11.660;2023-09-08T01:53:24;95876.84;;;15.21;100.00
65800;BME280;52544;48.116;11.660;2023-09-08T01:55:50;95874.63;;;15.16;100.00
65800;BME280;52544;48.116;11.660;2023-09-08T01:58:15;95879.66;;;15.19;100.00
65800;BME280;52544;48.116;11.660;2023-09-08T02:00:40;95885.16;;;15.18;100.00
65800;BME280;52544;48.116;11.660;2023-09-08T02:03:06;95881.09;;;15.14;100.00
65800;BME280;52544;48.116;11.660;2023-09-08T02:05:31;95873.13;;;15.14;100.00
65800;BME280;52544;48.116;11.660;2023-09-08T02:07:56;95871.56;;;15.11;100.00
65800;BME280;52544;48.116;11.660;2023-09-08T02:10:22;95874.56;;;15.08;100.00
65800;BME280;52544;48.116;11.660;2023-09-08T02:12:47;95871.91;;;15.08;100.00
65800;BME280;52544;48.116;11.660;2023-09-08T02:15:13;95874.84;;;15.05;100.00
65800;BME280;52544;48.116;11.660;2023-09-08T02:17:38;95877.53;;;15.05;100.00
65800;BME280;52544;48.116;11.660;2023-09-08T02:20:04;95870.81;;;15.01;100.00
65800;BME280;52544;48.116;11.660;2023-09-08T02:22:30;95873.78;;;14.98;100.00
65800;BME280;52544;48.116;11.660;2023-09-08T02:24:55;95883.31;;;15.00;100.00
65800;BME280;52544;48.116;11.660;2023-09-08T02:27:23;95877.16;;;15.00;100.00
65800;BME280;52544;48.116;11.660;2023-09-08T02:29:48;95876.44;;;14.98;100.00
65800;BME280;52544;48.116;11.660;2023-09-08T02:32:14;95883.78;;;14.96;100.00
65800;BME280;52544;48.116;11.660;2023-09-08T02:34:39;95882.94;;;14.95;100.00
65800;BME280;52544;48.116;11.660;2023-09-08T02:37:06;95879.19;;;14.88;100.00
65800;BME280;52544;48.116;11.660;2023-09-08T02:39:32;95876.97;;;14.84;100.00
65800;BME280;52544;48.116;11.660;2023-09-08T02:41:57;95881.75;;;14.80;100.00
65800;BME280;52544;48.116;11.660;2023-09-08T02:44:23;95869.56;;;14.78;100.00
65800;BME280;52544;48.116;11.660;2023-09-08T02:46:48;95880.22;;;14.78;100.00
65800;BME280;52544;48.116;11.660;2023-09-08T02:49:14;95875.22;;;14.74;100.00
65800;BME280;52544;48.116;11.660;2023-09-08T02:51:39;95868.50;;;14.70;100.00
65800;BME280;52544;48.116;11.660;2023-09-08T02:54:05;95876.78;;;14.67;100.00
65800;BME280;52544;48.116;11.660;2023-09-08T02:56:30;95874.13;;;14.67;100.00
65800;BME280;52544;48.116;11.660;2023-09-08T02:58:55;95873.28;;;14.67;100.00
65800;BME280;52544;48.116;11.660;2023-09-08T03:01:21;95874.41;;;14.64;100.00
65800;BME280;52544;48.116;11.660;2023-09-08T03:03:47;95878.75;;;14.65;100.00
65800;BME280;52544;48.116;11.660;2023-09-08T03:06:14;95884.06;;;14.65;100.00
65800;BME280;52544;48.116;11.660;2023-09-08T03:08:39;95869.25;;;14.63;100.00
65800;BME280;52544;48.116;11.660;2023-09-08T03:11:05;95873.03;;;14.60;100.00
65800;BME280;52544;48.116;11.660;2023-09-08T03:13:32;95867.56;;;14.62;100.00
65800;BME280;52544;48.116;11.660;2023-09-08T03:16:02;95870.06;;;14.63;100.00
65800;BME280;52544;48.116;11.660;2023-09-08T03:18:28;95870.25;;;14.62;100.00
65800;BME280;52544;48.116;11.660;2023-09-08T03:20:54;95867.16;;;14.57;100.00
65800;BME280;52544;48.116;11.660;2023-09-08T03:23:19;95872.47;;;14.57;100.00
65800;BME280;52544;48.116;11.660;2023-09-08T03:25:45;95876.31;;;14.54;100.00
65800;BME280;52544;48.116;11.660;2023-09-08T03:28:11;95876.59;;;14.51;100.00
65800;BME280;52544;48.116;11.660;2023-09-08T03:30:36;95875.19;;;14.47;100.00
65800;BME280;52544;48.116;11.660;2023-09-08T03:33:02;95879.00;;;14.44;100.00
65800;BME280;52544;48.116;11.660;2023-09-08T03:35:27;95875.47;;;14.44;100.00
65800;BME280;52544;48.116;11.660;2023-09-08T03:37:53;95880.94;;;14.42;100.00
65800;BME280;52544;48.116;11.660;2023-09-08T03:40:18;95877.88;;;14.37;100.00
65800;BME280;52544;48.116;11.660;2023-09-08T03:42:43;95880.84;;;14.34;100.00
65800;BME280;52544;48.116;11.660;2023-09-08T03:45:09;95881.56;;;14.36;100.00
65800;BME280;52544;48.116;11.660;2023-09-08T03:47:35;95876.06;;;14.38;100.00
65800;BME280;52544;48.116;11.660;2023-09-08T03:50:00;95874.41;;;14.37;100.00
65800;BME280;52544;48.116;11.660;2023-09-08T03:52:26;95874.69;;;14.34;100.00
65800;BME280;52544;48.116;11.660;2023-09-08T03:54:51;95873.00;;;14.33;100.00
65800;BME280;52544;48.116;11.660;2023-09-08T03:57:16;95865.16;;;14.31;100.00
65800;BME280;52544;48.116;11.660;2023-09-08T03:59:42;95872.63;;;14.28;100.00
65800;BME280;52544;48.116;11.660;2023-09-08T04:02:07;95875.97;;;14.30;100.00
65800;BME280;52544;48.116;11.660;2023-09-08T04:04:33;95876.25;;;14.26;100.00
65800;BME280;52544;48.116;11.660;2023-09-08T04:06:58;95874.84;;;14.22;100.00
65800;BME280;52544;48.116;11.660;2023-09-08T04:09:24;95875.00;;;14.21;100.00
65800;BME280;52544;48.116;11.660;2023-09-08T04:11:49;95877.84;;;14.19;100.00
65800;BME280;52544;48.116;11.660;2023-09-08T04:14:14;95879.22;;;14.14;100.00
65800;BME280;52544;48.116;11.660;2023-09-08T04:16:40;95874.22;;;14.11;100.00
65800;BME280;52544;48.116;11.660;2023-09-08T04:19:05;95880.66;;;14.08;100.00
65800;BME280;52544;48.116;11.660;2023-09-08T04:21:30;95873.94;;;14.04;100.00
65800;BME280;52544;48.116;11.660;2023-09-08T04:23:56;95878.16;;;13.97;100.00
65800;BME280;52544;48.116;11.660;2023-09-08T04:26:21;95880.16;;;13.95;100.00
65800;BME280;52544;48.116;11.660;2023-09-08T04:28:47;95872.44;;;13.92;100.00
65800;BME280;52544;48.116;11.660;2023-09-08T04:31:12;95871.78;;;13.90;100.00
65800;BME280;52544;48.116;11.660;2023-09-08T04:33:38;95875.94;;;13.92;100.00
65800;BME280;52544;48.116;11.660;2023-09-08T04:36:04;95877.09;;;13.90;100.00
65800;BME280;52544;48.116;11.660;2023-09-08T04:38:29;95878.75;;;13.91;100.00
65800;BME280;52544;48.116;11.660;2023-09-08T04:40:55;95877.50;;;13.95;100.00
65800;BME280;52544;48.116;11.660;2023-09-08T04:43:20;95879.31;;;13.94;100.00
65800;BME280;52544;48.116;11.660;2023-09-08T04:45:45;95882.09;;;13.93;100.00
65800;BME280;52544;48.116;11.660;2023-09-08T04:48:11;95886.31;;;13.95;100.00
65800;BME280;52544;48.116;11.660;2023-09-08T04:50:36;95884.63;;;13.94;100.00
65800;BME280;52544;48.116;11.660;2023-09-08T04:53:01;95887.13;;;13.96;100.00
65800;BME280;52544;48.116;11.660;2023-09-08T04:55:27;95884.34;;;13.97;100.00
65800;BME280;52544;48.116;11.660;2023-09-08T04:57:52;95891.47;;;13.97;100.00
65800;BME280;52544;48.116;11.660;2023-09-08T05:00:18;95889.25;;;13.92;100.00
65800;BME280;52544;48.116;11.660;2023-09-08T05:02:43;95888.41;;;13.92;100.00
65800;BME280;52544;48.116;11.660;2023-09-08T05:05:09;95887.56;;;13.91;100.00
65800;BME280;52544;48.116;11.660;2023-09-08T05:07:35;95893.59;;;13.93;100.00
65800;BME280;52544;48.116;11.660;2023-09-08T05:10:00;95892.91;;;13.91;100.00
65800;BME280;52544;48.116;11.660;2023-09-08T05:12:26;95883.09;;;13.92;100.00
65800;BME280;52544;48.116;11.660;2023-09-08T05:14:51;95896.09;;;13.95;100.00
65800;BME280;52544;48.116;11.660;2023-09-08T05:17:25;95887.84;;;13.98;100.00
65800;BME280;52544;48.116;11.660;2023-09-08T05:19:51;95895.41;;;14.03;100.00
65800;BME280;52544;48.116;11.660;2023-09-08T05:22:17;95895.25;;;14.04;100.00
65800;BME280;52544;48.116;11.660;2023-09-08T05:24:42;95896.63;;;14.08;100.00
65800;BME280;52544;48.116;11.660;2023-09-08T05:27:08;95902.66;;;14.10;100.00
65800;BME280;52544;48.116;11.660;2023-09-08T05:29:33;95896.34;;;14.11;100.00
65800;BME280;52544;48.116;11.660;2023-09-08T05:31:58;95904.34;;;14.11;100.00
65800;BME280;52544;48.116;11.660;2023-09-08T05:34:24;95910.66;;;14.10;100.00
65800;BME280;52544;48.116;11.660;2023-09-08T05:36:49;95905.31;;;14.10;100.00
65800;BME280;52544;48.116;11.660;2023-09-08T05:39:15;95905.84;;;14.14;100.00
65800;BME280;52544;48.116;11.660;2023-09-08T05:41:40;95909.78;;;14.19;100.00
65800;BME280;52544;48.116;11.660;2023-09-08T05:44:06;95912.84;;;14.24;100.00
65800;BME280;52544;48.116;11.660;2023-09-08T05:46:31;95914.06;;;14.30;100.00
65800;BME280;52544;48.116;11.660;2023-09-08T05:48:57;95915.31;;;14.36;100.00
65800;BME280;52544;48.116;11.660;2023-09-08T05:51:22;95909.84;;;14.37;100.00
65800;BME280;52544;48.116;11.660;2023-09-08T05:53:48;95916.69;;;14.40;100.00
65800;BME280;52544;48.116;11.660;2023-09-08T05:56:13;95924.78;;;14.48;100.00
65800;BME280;52544;48.116;11.660;2023-09-08T05:58:39;95916.25;;;14.54;100.00
65800;BME280;52544;48.116;11.660;2023-09-08T06:01:04;95918.03;;;14.63;100.00
65800;BME280;52544;48.116;11.660;2023-09-08T06:03:30;95922.75;;;14.69;100.00
65800;BME280;52544;48.116;11.660;2023-09-08T06:05:56;95926.88;;;14.82;100.00
65800;BME280;52544;48.116;11.660;2023-09-08T06:08:22;95927.97;;;14.89;100.00
65800;BME280;52544;48.116;11.660;2023-09-08T06:10:47;95929.63;;;14.99;100.00
65800;BME280;52544;48.116;11.660;2023-09-08T06:13:13;95925.06;;;15.10;100.00
65800;BME280;52544;48.116;11.660;2023-09-08T06:15:38;95924.97;;;15.19;100.00
65800;BME280;52544;48.116;11.660;2023-09-08T06:18:04;95919.28;;;15.32;100.00
65800;BME280;52544;48.116;11.660;2023-09-08T06:20:30;95917.22;;;15.44;100.00
65800;BME280;52544;48.116;11.660;2023-09-08T06:22:55;95915.16;;;15.56;100.00
65800;BME280;52544;48.116;11.660;2023-09-08T06:25:21;95915.81;;;15.67;100.00
65800;BME280;52544;48.116;11.660;2023-09-08T06:27:46;95919.88;;;15.80;100.00
65800;BME280;52544;48.116;11.660;2023-09-08T06:30:12;95916.81;;;15.92;100.00
65800;BME280;52544;48.116;11.660;2023-09-08T06:32:42;95913.09;;;16.11;100.00
65800;BME280;52544;48.116;11.660;2023-09-08T06:35:07;95920.41;;;16.27;100.00
65800;BME280;52544;48.116;11.660;2023-09-08T06:37:39;95916.34;;;16.49;100.00
65800;BME280;52544;48.116;11.660;2023-09-08T06:40:05;95918.91;;;16.67;100.00
65800;BME280;52544;48.116;11.660;2023-09-08T06:42:32;95929.72;;;16.83;100.00
65800;BME280;52544;48.116;11.660;2023-09-08T06:44:58;95926.41;;;16.97;100.00
65800;BME280;52544;48.116;11.660;2023-09-08T06:47:23;95933.66;;;17.13;100.00
65800;BME280;52544;48.116;11.660;2023-09-08T06:49:49;95922.16;;;17.29;100.00
65800;BME280;52544;48.116;11.660;2023-09-08T06:52:14;95926.69;;;17.45;100.00
65800;BME280;52544;48.116;11.660;2023-09-08T06:54:40;95918.34;;;17.56;100.00
65800;BME280;52544;48.116;11.660;2023-09-08T06:57:05;95924.34;;;17.66;100.00
65800;BME280;52544;48.116;11.660;2023-09-08T06:59:30;95922.22;;;17.78;100.00
65800;BME280;52544;48.116;11.660;2023-09-08T07:01:56;95917.19;;;17.91;100.00
65800;BME280;52544;48.116;11.660;2023-09-08T07:04:21;95918.84;;;18.09;100.00
65800;BME280;52544;48.116;11.660;2023-09-08T07:06:47;95919.53;;;18.27;100.00
65800;BME280;52544;48.116;11.660;2023-09-08T07:09:12;95926.81;;;18.49;100.00
65800;BME280;52544;48.116;11.660;2023-09-08T07:11:38;95933.81;;;18.67;100.00
65800;BME280;52544;48.116;11.660;2023-09-08T07:14:03;95932.97;;;18.83;100.00
65800;BME280;52544;48.116;11.660;2023-09-08T07:16:29;95930.72;;;18.94;100.00
65800;BME280;52544;48.116;11.660;2023-09-08T07:18:54;95930.16;;;19.07;100.00
65800;BME280;52544;48.116;11.660;2023-09-08T07:21:19;95929.13;;;19.16;100.00
65800;BME280;52544;48.116;11.660;2023-09-08T07:23:45;95925.53;;;19.24;100.00
65800;BME280;52544;48.116;11.660;2023-09-08T07:26:10;95927.53;;;19.30;100.00
65800;BME280;52544;48.116;11.660;2023-09-08T07:28:36;95928.31;;;19.39;100.00
65800;BME280;52544;48.116;11.660;2023-09-08T07:31:02;95925.56;;;19.47;100.00
65800;BME280;52544;48.116;11.660;2023-09-08T07:33:28;95923.88;;;19.54;100.00
65800;BME280;52544;48.116;11.660;2023-09-08T07:35:53;95910.56;;;19.61;100.00
65800;BME280;52544;48.116;11.660;2023-09-08T07:38:19;95914.38;;;19.66;100.00
65800;BME280;52544;48.116;11.660;2023-09-08T07:40:44;95910.31;;;19.70;100.00
65800;BME280;52544;48.116;11.660;2023-09-08T07:43:10;95913.69;;;19.72;100.00
65800;BME280;52544;48.116;11.660;2023-09-08T07:45:35;95923.06;;;19.77;100.00
65800;BME280;52544;48.116;11.660;2023-09-08T07:48:00;95915.63;;;19.79;100.00
65800;BME280;52544;48.116;11.660;2023-09-08T07:50:28;95926.69;;;19.84;100.00
65800;BME280;52544;48.116;11.660;2023-09-08T07:52:55;95918.94;;;19.89;100.00
65800;BME280;52544;48.116;11.660;2023-09-08T07:55:22;95922.25;;;19.91;100.00
65800;BME280;52544;48.116;11.660;2023-09-08T07:57:49;95929.78;;;19.95;100.00
65800;BME280;52544;48.116;11.660;2023-09-08T08:00:15;95933.97;;;19.98;100.00
65800;BME280;52544;48.116;11.660;2023-09-08T08:02:47;95930.53;;;20.04;100.00
65800;BME280;52544;48.116;11.660;2023-09-08T08:05:13;95927.13;;;20.10;100.00
65800;BME280;52544;48.116;11.660;2023-09-08T08:07:39;95930.09;;;20.15;100.00
65800;BME280;52544;48.116;11.660;2023-09-08T08:10:08;95928.72;;;20.19;100.00
65800;BME280;52544;48.116;11.660;2023-09-08T08:12:35;95921.97;;;20.23;100.00
65800;BME280;52544;48.116;11.660;2023-09-08T08:15:00;95928.66;;;20.28;100.00
65800;BME280;52544;48.116;11.660;2023-09-08T08:17:26;95925.59;;;20.31;100.00
65800;BME280;52544;48.116;11.660;2023-09-08T08:19:54;95924.38;;;20.33;100.00
65800;BME280;52544;48.116;11.660;2023-09-08T08:22:19;95929.75;;;20.33;100.00
65800;BME280;52544;48.116;11.660;2023-09-08T08:24:45;95929.22;;;20.38;100.00
65800;BME280;52544;48.116;11.660;2023-09-08T08:27:11;95922.09;;;20.45;100.00
65800;BME280;52544;48.116;11.660;2023-09-08T08:29:36;95924.25;;;20.50;100.00
65800;BME280;52544;48.116;11.660;2023-09-08T08:32:02;95923.69;;;20.54;100.00
65800;BME280;52544;48.116;11.660;2023-09-08T08:34:27;95922.97;;;20.60;100.00
65800;BME280;52544;48.116;11.660;2023-09-08T08:36:53;95924.72;;;20.68;100.00
65800;BME280;52544;48.116;11.660;2023-09-08T08:39:18;95924.81;;;20.75;100.00
65800;BME280;52544;48.116;11.660;2023-09-08T08:41:44;95923.06;;;20.82;100.00
65800;BME280;52544;48.116;11.660;2023-09-08T08:44:10;95927.69;;;20.88;100.00
65800;BME280;52544;48.116;11.660;2023-09-08T08:46:37;95921.38;;;20.95;100.00
65800;BME280;52544;48.116;11.660;2023-09-08T08:49:05;95919.78;;;21.01;100.00
65800;BME280;52544;48.116;11.660;2023-09-08T08:51:32;95918.19;;;21.07;100.00
65800;BME280;52544;48.116;11.660;2023-09-08T08:53:57;95920.34;;;21.11;100.00
65800;BME280;52544;48.116;11.660;2023-09-08T08:56:23;95913.38;;;21.17;100.00
65800;BME280;52544;48.116;11.660;2023-09-08T08:58:49;95915.13;;;21.25;100.00
65800;BME280;52544;48.116;11.660;2023-09-08T09:01:19;95917.75;;;21.33;100.00
65800;BME280;52544;48.116;11.660;2023-09-08T09:03:49;95917.63;;;21.41;100.00
65800;BME280;52544;48.116;11.660;2023-09-08T09:06:15;95911.25;;;21.49;100.00
65800;BME280;52544;48.116;11.660;2023-09-08T09:08:43;95915.06;;;21.54;100.00
65800;BME280;52544;48.116;11.660;2023-09-08T09:11:09;95916.78;;;21.62;100.00
65800;BME280;52544;48.116;11.660;2023-09-08T09:13:34;95912.31;;;21.69;100.00
65800;BME280;52544;48.116;11.660;2023-09-08T09:16:00;95910.97;;;21.80;100.00
65800;BME280;52544;48.116;11.660;2023-09-08T09:18:29;95902.09;;;21.86;100.00
65800;BME280;52544;48.116;11.660;2023-09-08T09:20:59;95899.28;;;21.94;100.00
65800;BME280;52544;48.116;11.660;2023-09-08T09:23:28;95892.72;;;22.03;100.00
65800;BME280;52544;48.116;11.660;2023-09-08T09:25:54;95896.97;;;22.12;100.00
65800;BME280;52544;48.116;11.660;2023-09-08T09:28:19;95902.88;;;22.23;100.00
65800;BME280;52544;48.116;11.660;2023-09-08T09:30:51;95900.44;;;22.34;100.00
65800;BME280;52544;48.116;11.660;2023-09-08T09:33:17;95899.91;;;22.45;100.00
65800;BME280;52544;48.116;11.660;2023-09-08T09:35:44;95901.25;;;22.56;100.00
65800;BME280;52544;48.116;11.660;2023-09-08T09:38:11;95906.06;;;22.67;100.00
65800;BME280;52544;48.116;11.660;2023-09-08T09:40:37;95900.50;;;22.76;100.00
65800;BME280;52544;48.116;11.660;2023-09-08T09:43:04;95894.56;;;22.87;100.00
65800;BME280;52544;48.116;11.660;2023-09-08T09:45:31;95896.72;;;22.98;100.00
65800;BME280;52544;48.116;11.660;2023-09-08T09:47:56;95890.34;;;23.12;100.00
65800;BME280;52544;48.116;11.660;2023-09-08T09:50:36;95886.66;;;23.27;100.00
65800;BME280;52544;48.116;11.660;2023-09-08T09:53:08;95889.81;;;23.43;100.00
65800;BME280;52544;48.116;11.660;2023-09-08T09:55:36;95885.09;;;23.59;100.00
65800;BME280;52544;48.116;11.660;2023-09-08T09:58:04;95886.78;;;23.73;100.00
65800;BME280;52544;48.116;11.660;2023-09-08T10:00:31;95885.97;;;23.86;100.00
65800;BME280;52544;48.116;11.660;2023-09-08T10:02:58;95885.81;;;24.01;100.00
65800;BME280;52544;48.116;11.660;2023-09-08T10:05:24;95872.69;;;24.17;100.00
65800;BME280;52544;48.116;11.660;2023-09-08T10:07:50;95872.88;;;24.36;100.00
65800;BME280;52544;48.116;11.660;2023-09-08T10:10:17;95867.47;;;24.49;100.00
65800;BME280;52544;48.116;11.660;2023-09-08T10:12:44;95872.03;;;24.62;100.00
65800;BME280;52544;48.116;11.660;2023-09-08T10:15:11;95867.00;;;24.72;100.00
65800;BME280;52544;48.116;11.660;2023-09-08T10:17:37;95863.22;;;24.86;100.00
65800;BME280;52544;48.116;11.660;2023-09-08T10:20:05;95863.59;;;25.03;100.00
65800;BME280;52544;48.116;11.660;2023-09-08T10:22:38;95872.28;;;25.18;100.00
65800;BME280;52544;48.116;11.660;2023-09-08T10:25:07;95869.31;;;25.33;100.00
65800;BME280;52544;48.116;11.660;2023-09-08T10:27:33;95863.81;;;25.47;100.00
65800;BME280;52544;48.116;11.660;2023-09-08T10:30:02;95868.72;;;25.63;100.00
65800;BME280;52544;48.116;11.660;2023-09-08T10:32:30;95861.34;;;25.77;100.00
65800;BME280;52544;48.116;11.660;2023-09-08T10:34:57;95859.84;;;25.87;100.00
65800;BME280;52544;48.116;11.660;2023-09-08T10:37:25;95867.03;;;26.00;100.00
65800;BME280;52544;48.116;11.660;2023-09-08T10:39:51;95858.94;;;26.18;100.00
65800;BME280;52544;48.116;11.660;2023-09-08T10:44:56;95861.84;;;26.49;100.00
65800;BME280;52544;48.116;11.660;2023-09-08T10:47:30;95865.47;;;26.61;100.00
65800;BME280;52544;48.116;11.660;2023-09-08T10:52:24;95859.84;;;26.81;100.00
65800;BME280;52544;48.116;11.660;2023-09-08T10:54:52;95852.56;;;26.93;100.00
65800;BME280;52544;48.116;11.660;2023-09-08T10:57:20;95858.31;;;27.03;100.00
65800;BME280;52544;48.116;11.660;2023-09-08T11:00:00;95853.19;;;27.13;100.00
65800;BME280;52544;48.116;11.660;2023-09-08T11:05:07;95858.31;;;27.40;100.00
65800;BME280;52544;48.116;11.660;2023-09-08T11:07:32;95860.09;;;27.46;100.00
65800;BME280;52544;48.116;11.660;2023-09-08T11:10:02;95856.44;;;27.52;100.00
65800;BME280;52544;48.116;11.660;2023-09-08T11:12:28;95855.06;;;27.61;99.40
65800;BME280;52544;48.116;11.660;2023-09-08T11:14:54;95847.78;;;27.74;98.89
65800;BME280;52544;48.116;11.660;2023-09-08T11:17:19;95853.13;;;27.80;95.87
65800;BME280;52544;48.116;11.660;2023-09-08T11:19:46;95852.47;;;27.97;96.63
65800;BME280;52544;48.116;11.660;2023-09-08T11:22:13;95855.69;;;28.05;98.47
65800;BME280;52544;48.116;11.660;2023-09-08T11:24:41;95849.06;;;28.13;96.37
65800;BME280;52544;48.116;11.660;2023-09-08T11:27:07;95855.47;;;28.19;97.83
65800;BME280;52544;48.116;11.660;2023-09-08T11:29:32;95855.00;;;28.22;97.38
65800;BME280;52544;48.116;11.660;2023-09-08T11:31:58;95857.13;;;28.31;97.33
65800;BME280;52544;48.116;11.660;2023-09-08T11:34:23;95845.94;;;28.39;94.78
65800;BME280;52544;48.116;11.660;2023-09-08T11:36:49;95854.94;;;28.52;96.55
65800;BME280;52544;48.116;11.660;2023-09-08T11:39:14;95849.47;;;28.52;95.64
65800;BME280;52544;48.116;11.660;2023-09-08T11:41:40;95854.94;;;28.52;94.31
65800;BME280;52544;48.116;11.660;2023-09-08T11:44:06;95853.03;;;28.52;96.24
65800;BME280;52544;48.116;11.660;2023-09-08T11:46:31;95850.66;;;28.56;92.29
65800;BME280;52544;48.116;11.660;2023-09-08T11:48:57;95846.25;;;28.67;89.55
65800;BME280;52544;48.116;11.660;2023-09-08T11:51:23;95845.44;;;28.66;91.32
65800;BME280;52544;48.116;11.660;2023-09-08T11:53:49;95842.13;;;28.64;90.73
65800;BME280;52544;48.116;11.660;2023-09-08T11:56:15;95839.78;;;28.68;91.48
65800;BME280;52544;48.116;11.660;2023-09-08T11:58:41;95839.88;;;28.73;86.89
65800;BME280;52544;48.116;11.660;2023-09-08T12:01:07;95836.91;;;28.74;91.28
65800;BME280;52544;48.116;11.660;2023-09-08T12:03:33;95835.97;;;28.80;90.37
65800;BME280;52544;48.116;11.660;2023-09-08T12:05:58;95843.41;;;28.85;90.67
65800;BME280;52544;48.116;11.660;2023-09-08T12:08:25;95841.41;;;28.80;88.18
65800;BME280;52544;48.116;11.660;2023-09-08T12:10:53;95846.25;;;28.67;82.17
65800;BME280;52544;48.116;11.660;2023-09-08T12:13:24;95842.69;;;28.78;85.42
65800;BME280;52544;48.116;11.660;2023-09-08T12:15:50;95841.25;;;28.87;85.92
65800;BME280;52544;48.116;11.660;2023-09-08T12:18:16;95843.19;;;28.98;81.97
65800;BME280;52544;48.116;11.660;2023-09-08T12:20:42;95841.53;;;28.97;81.73
65800;BME280;52544;48.116;11.660;2023-09-08T12:23:18;95836.53;;;28.94;86.57
65800;BME280;52544;48.116;11.660;2023-09-08T12:25:49;95839.13;;;29.01;87.06
65800;BME280;52544;48.116;11.660;2023-09-08T12:28:16;95836.66;;;28.99;83.89
65800;BME280;52544;48.116;11.660;2023-09-08T12:30:42;95840.56;;;29.03;86.81
65800;BME280;52544;48.116;11.660;2023-09-08T12:33:08;95831.78;;;29.01;85.77
65800;BME280;52544;48.116;11.660;2023-09-08T12:35:35;95834.13;;;29.09;89.22
65800;BME280;52544;48.116;11.660;2023-09-08T12:38:04;95839.56;;;29.09;89.40
65800;BME280;52544;48.116;11.660;2023-09-08T12:40:35;95837.22;;;29.13;83.01
65800;BME280;52544;48.116;11.660;2023-09-08T12:43:01;95835.31;;;29.13;85.95